Minot Air Force Base, ND (58705)

3:54 AM CST on February 10, 2016 (GMT -0600)
Edgeview Estates | | Change Station
CLOSE
Current Station
Personal Weather Station
Location: Minot, ND
Elevation: 1752 ft
Nearby Weather Stations

Elev 1752 ft 48.21 °N, 101.33 °W | Updated 1 second ago

Overcast
Overcast
18.1 °F
Feels Like 18 °F
N
3.0
Wind Variable Wind from SW
Gusts 11.0 mph

Today
High -- | Low -- °F
--% Chance of Precip.
Yesterday
High -- | Low -- °F
Precip. -- in
Pressure 29.97 in
Visibility 10.0 miles
Clouds Overcast 3700 ft
Windchill 18 °F
Dew Point 14 °F
Humidity 83%
Rainfall 0.00 in
Snow Depth Not available.
8:00 AM 5:58 PM
Waxing Crescent, 4% visible
METAR KMOT 100854Z AUTO 11012KT 10SM OVC037 M07/M11 A2990 RMK AO2 SNE17 SLP147 P0000 60001 T10671111 58025
Pressure 29.97 in
Visibility 10.0 miles
Clouds Overcast 3700 ft
Windchill 18 °F
Dew Point 14 °F
Humidity 83%
Rainfall 0.00 in
Snow Depth Not available.
8:00 AM 5:58 PM
Waxing Crescent, 4% visible
METAR KMOT 100854Z AUTO 11012KT 10SM OVC037 M07/M11 A2990 RMK AO2 SNE17 SLP147 P0000 60001 T10671111 58025

10-Day Weather Forecast

Almanac

Astronomy

Feb. 10, 2016 Rise Set
Actual Time
Civil Twilight
Nautical Twilight
Astronomical Twilight
Moon
Length of Visible Light
Length of Day
Tomorrow will be .
, % of the Moon is Illuminated

Today's Extremes

State Highs State Lows

Community

WunderPhotos

Upload Photos

1,891,826 photos uploaded!

WunderBlog® & News

Nearby

Air Quality

  Air Quality AQ Index Pollutant
Not available.

Snow Depth

Station Depth Elevation

Earthquake Activity

City Distance Mag. Time & Date
Minimum magnitude displayed is 2.5.

Coastal Water Temperatures

Place Temperature

Stations

Nearby Weather Stations

Station Location Temp. Windchill Dew Point Humidity Wind Precip. Elev Updated Type
                   

Watches & Warnings

There are currently no watches in effect.